sensor_id;sensor_type;location;lat;lon;timestamp;P1;durP1;ratioP1;P2;durP2;ratioP2
66619;SDS011;53484;51.356;6.732;2023-04-15T00:01:11;9.57;;;3.57;;
66619;SDS011;53484;51.356;6.732;2023-04-15T00:03:42;12.32;;;4.30;;
66619;SDS011;53484;51.356;6.732;2023-04-15T00:06:10;9.65;;;4.25;;
66619;SDS011;53484;51.356;6.732;2023-04-15T00:08:37;14.20;;;4.72;;
66619;SDS011;53484;51.356;6.732;2023-04-15T00:11:03;7.80;;;4.30;;
66619;SDS011;53484;51.356;6.732;2023-04-15T00:13:30;9.83;;;4.33;;
66619;SDS011;53484;51.356;6.732;2023-04-15T00:15:56;10.15;;;4.50;;
66619;SDS011;53484;51.356;6.732;2023-04-15T00:18:22;12.07;;;4.80;;
66619;SDS011;53484;51.356;6.732;2023-04-15T00:20:49;11.80;;;4.80;;
66619;SDS011;53484;51.356;6.732;2023-04-15T00:23:17;9.63;;;4.88;;
66619;SDS011;53484;51.356;6.732;2023-04-15T00:25:44;8.57;;;4.33;;
66619;SDS011;53484;51.356;6.732;2023-04-15T00:28:10;13.77;;;5.35;;
66619;SDS011;53484;51.356;6.732;2023-04-15T00:30:37;11.02;;;5.00;;
66619;SDS011;53484;51.356;6.732;2023-04-15T00:33:04;11.40;;;4.70;;
66619;SDS011;53484;51.356;6.732;2023-04-15T00:35:30;13.50;;;5.18;;
66619;SDS011;53484;51.356;6.732;2023-04-15T00:37:57;10.87;;;4.60;;
66619;SDS011;53484;51.356;6.732;2023-04-15T00:40:25;9.30;;;4.30;;
66619;SDS011;53484;51.356;6.732;2023-04-15T00:42:51;9.60;;;4.45;;
66619;SDS011;53484;51.356;6.732;2023-04-15T00:45:18;11.00;;;4.93;;
66619;SDS011;53484;51.356;6.732;2023-04-15T00:47:44;13.07;;;5.22;;
66619;SDS011;53484;51.356;6.732;2023-04-15T00:50:11;12.63;;;4.80;;
66619;SDS011;53484;51.356;6.732;2023-04-15T00:52:37;9.85;;;4.97;;
66619;SDS011;53484;51.356;6.732;2023-04-15T00:55:04;10.15;;;4.93;;
66619;SDS011;53484;51.356;6.732;2023-04-15T00:57:32;10.43;;;4.85;;
66619;SDS011;53484;51.356;6.732;2023-04-15T00:59:59;12.05;;;5.43;;
66619;SDS011;53484;51.356;6.732;2023-04-15T01:02:25;11.97;;;5.50;;
66619;SDS011;53484;51.356;6.732;2023-04-15T01:04:52;10.90;;;5.72;;
66619;SDS011;53484;51.356;6.732;2023-04-15T01:07:18;8.27;;;5.05;;
66619;SDS011;53484;51.356;6.732;2023-04-15T01:09:44;10.38;;;5.47;;
66619;SDS011;53484;51.356;6.732;2023-04-15T01:12:13;11.63;;;5.18;;
66619;SDS011;53484;51.356;6.732;2023-04-15T01:14:40;11.07;;;6.10;;
66619;SDS011;53484;51.356;6.732;2023-04-15T01:17:07;13.40;;;4.95;;
66619;SDS011;53484;51.356;6.732;2023-04-15T01:19:34;9.20;;;4.97;;
66619;SDS011;53484;51.356;6.732;2023-04-15T01:22:01;12.32;;;5.10;;
66619;SDS011;53484;51.356;6.732;2023-04-15T01:24:27;10.77;;;5.15;;
66619;SDS011;53484;51.356;6.732;2023-04-15T01:26:56;12.27;;;5.37;;
66619;SDS011;53484;51.356;6.732;2023-04-15T01:29:23;9.68;;;5.15;;
66619;SDS011;53484;51.356;6.732;2023-04-15T01:31:49;10.18;;;5.63;;
66619;SDS011;53484;51.356;6.732;2023-04-15T01:34:16;14.55;;;6.45;;
66619;SDS011;53484;51.356;6.732;2023-04-15T01:36:43;14.05;;;5.80;;
66619;SDS011;53484;51.356;6.732;2023-04-15T01:39:09;12.00;;;6.30;;
66619;SDS011;53484;51.356;6.732;2023-04-15T01:41:35;12.60;;;5.82;;
66619;SDS011;53484;51.356;6.732;2023-04-15T01:44:03;12.40;;;5.57;;
66619;SDS011;53484;51.356;6.732;2023-04-15T01:46:29;10.48;;;5.63;;
66619;SDS011;53484;51.356;6.732;2023-04-15T01:48:56;12.70;;;6.45;;
66619;SDS011;53484;51.356;6.732;2023-04-15T01:51:22;13.00;;;5.70;;
66619;SDS011;53484;51.356;6.732;2023-04-15T01:53:49;13.93;;;6.03;;
66619;SDS011;53484;51.356;6.732;2023-04-15T01:56:16;15.98;;;6.30;;
66619;SDS011;53484;51.356;6.732;2023-04-15T01:58:42;13.52;;;6.07;;
66619;SDS011;53484;51.356;6.732;2023-04-15T02:01:10;13.13;;;6.43;;
66619;SDS011;53484;51.356;6.732;2023-04-15T02:03:37;10.80;;;6.70;;
66619;SDS011;53484;51.356;6.732;2023-04-15T02:06:03;13.45;;;6.82;;
66619;SDS011;53484;51.356;6.732;2023-04-15T02:08:30;12.73;;;6.13;;
66619;SDS011;53484;51.356;6.732;2023-04-15T02:10:56;13.15;;;6.47;;
66619;SDS011;53484;51.356;6.732;2023-04-15T02:13:22;13.73;;;6.47;;
66619;SDS011;53484;51.356;6.732;2023-04-15T02:15:49;15.73;;;6.60;;
66619;SDS011;53484;51.356;6.732;2023-04-15T02:18:17;10.68;;;6.40;;
66619;SDS011;53484;51.356;6.732;2023-04-15T02:20:44;13.75;;;7.25;;
66619;SDS011;53484;51.356;6.732;2023-04-15T02:23:11;15.10;;;6.30;;
66619;SDS011;53484;51.356;6.732;2023-04-15T02:25:37;14.02;;;6.88;;
66619;SDS011;53484;51.356;6.732;2023-04-15T02:28:03;12.87;;;5.77;;
66619;SDS011;53484;51.356;6.732;2023-04-15T02:30:31;12.05;;;6.00;;
66619;SDS011;53484;51.356;6.732;2023-04-15T02:32:57;11.65;;;6.85;;
66619;SDS011;53484;51.356;6.732;2023-04-15T02:35:25;13.60;;;6.20;;
66619;SDS011;53484;51.356;6.732;2023-04-15T02:37:51;13.15;;;6.75;;
66619;SDS011;53484;51.356;6.732;2023-04-15T02:40:18;13.70;;;6.40;;
66619;SDS011;53484;51.356;6.732;2023-04-15T02:42:44;10.55;;;5.78;;
66619;SDS011;53484;51.356;6.732;2023-04-15T02:45:10;12.13;;;5.90;;
66619;SDS011;53484;51.356;6.732;2023-04-15T02:47:37;12.55;;;5.75;;
66619;SDS011;53484;51.356;6.732;2023-04-15T02:50:06;8.60;;;5.18;;
66619;SDS011;53484;51.356;6.732;2023-04-15T02:52:34;13.33;;;5.80;;
66619;SDS011;53484;51.356;6.732;2023-04-15T02:55:00;13.38;;;6.53;;
66619;SDS011;53484;51.356;6.732;2023-04-15T02:57:28;13.45;;;5.55;;
66619;SDS011;53484;51.356;6.732;2023-04-15T02:59:55;11.40;;;5.78;;
66619;SDS011;53484;51.356;6.732;2023-04-15T03:02:21;12.77;;;5.95;;
66619;SDS011;53484;51.356;6.732;2023-04-15T03:04:47;13.43;;;5.13;;
66619;SDS011;53484;51.356;6.732;2023-04-15T03:07:13;13.23;;;5.68;;
66619;SDS011;53484;51.356;6.732;2023-04-15T03:09:42;11.10;;;5.75;;
66619;SDS011;53484;51.356;6.732;2023-04-15T03:12:08;9.35;;;5.50;;
66619;SDS011;53484;51.356;6.732;2023-04-15T03:14:35;12.45;;;6.18;;
66619;SDS011;53484;51.356;6.732;2023-04-15T03:17:01;14.43;;;7.03;;
66619;SDS011;53484;51.356;6.732;2023-04-15T03:19:27;12.05;;;6.18;;
66619;SDS011;53484;51.356;6.732;2023-04-15T03:21:54;11.13;;;6.15;;
66619;SDS011;53484;51.356;6.732;2023-04-15T03:24:20;11.05;;;6.65;;
66619;SDS011;53484;51.356;6.732;2023-04-15T03:26:48;13.57;;;6.72;;
66619;SDS011;53484;51.356;6.732;2023-04-15T03:29:14;13.07;;;7.27;;
66619;SDS011;53484;51.356;6.732;2023-04-15T03:31:40;14.27;;;7.03;;
66619;SDS011;53484;51.356;6.732;2023-04-15T03:34:06;11.55;;;6.57;;
66619;SDS011;53484;51.356;6.732;2023-04-15T03:36:33;12.45;;;7.43;;
66619;SDS011;53484;51.356;6.732;2023-04-15T03:38:59;11.90;;;6.50;;
66619;SDS011;53484;51.356;6.732;2023-04-15T03:41:26;13.73;;;7.40;;
66619;SDS011;53484;51.356;6.732;2023-04-15T03:43:53;12.90;;;7.32;;
66619;SDS011;53484;51.356;6.732;2023-04-15T03:46:20;17.00;;;8.45;;
66619;SDS011;53484;51.356;6.732;2023-04-15T03:48:46;14.65;;;7.80;;
66619;SDS011;53484;51.356;6.732;2023-04-15T03:51:13;15.85;;;8.40;;
66619;SDS011;53484;51.356;6.732;2023-04-15T03:53:39;15.47;;;7.70;;
66619;SDS011;53484;51.356;6.732;2023-04-15T03:56:06;16.00;;;8.57;;
66619;SDS011;53484;51.356;6.732;2023-04-15T03:58:32;13.98;;;8.45;;
66619;SDS011;53484;51.356;6.732;2023-04-15T04:01:00;13.55;;;8.00;;
66619;SDS011;53484;51.356;6.732;2023-04-15T04:03:26;17.80;;;8.50;;
66619;SDS011;53484;51.356;6.732;2023-04-15T04:05:52;17.57;;;8.00;;
66619;SDS011;53484;51.356;6.732;2023-04-15T04:08:19;16.27;;;8.25;;
66619;SDS011;53484;51.356;6.732;2023-04-15T04:10:46;15.38;;;8.18;;
66619;SDS011;53484;51.356;6.732;2023-04-15T04:13:12;16.17;;;8.45;;
66619;SDS011;53484;51.356;6.732;2023-04-15T04:15:39;16.77;;;8.43;;
66619;SDS011;53484;51.356;6.732;2023-04-15T04:18:06;11.83;;;7.97;;
66619;SDS011;53484;51.356;6.732;2023-04-15T04:20:33;17.85;;;9.40;;
66619;SDS011;53484;51.356;6.732;2023-04-15T04:22:59;14.68;;;8.63;;
66619;SDS011;53484;51.356;6.732;2023-04-15T04:25:25;18.70;;;8.48;;
66619;SDS011;53484;51.356;6.732;2023-04-15T04:27:52;15.80;;;8.63;;
66619;SDS011;53484;51.356;6.732;2023-04-15T04:30:18;15.23;;;9.53;;
66619;SDS011;53484;51.356;6.732;2023-04-15T04:32:44;16.67;;;8.95;;
66619;SDS011;53484;51.356;6.732;2023-04-15T04:35:12;17.77;;;10.13;;
66619;SDS011;53484;51.356;6.732;2023-04-15T04:37:38;19.50;;;10.00;;
66619;SDS011;53484;51.356;6.732;2023-04-15T04:40:05;18.45;;;10.50;;
66619;SDS011;53484;51.356;6.732;2023-04-15T04:42:32;19.03;;;9.80;;
66619;SDS011;53484;51.356;6.732;2023-04-15T04:44:58;19.80;;;10.63;;
66619;SDS011;53484;51.356;6.732;2023-04-15T04:47:24;20.30;;;11.02;;
66619;SDS011;53484;51.356;6.732;2023-04-15T04:49:50;18.65;;;11.15;;
66619;SDS011;53484;51.356;6.732;2023-04-15T04:52:18;21.58;;;11.30;;
66619;SDS011;53484;51.356;6.732;2023-04-15T04:54:44;20.47;;;10.23;;
66619;SDS011;53484;51.356;6.732;2023-04-15T04:57:11;22.98;;;11.07;;
66619;SDS011;53484;51.356;6.732;2023-04-15T04:59:39;19.65;;;10.90;;
66619;SDS011;53484;51.356;6.732;2023-04-15T05:02:06;19.65;;;10.82;;
66619;SDS011;53484;51.356;6.732;2023-04-15T05:04:32;21.02;;;10.60;;
66619;SDS011;53484;51.356;6.732;2023-04-15T05:06:58;18.63;;;10.37;;
66619;SDS011;53484;51.356;6.732;2023-04-15T05:09:26;17.50;;;10.20;;
66619;SDS011;53484;51.356;6.732;2023-04-15T05:11:53;19.00;;;10.77;;
66619;SDS011;53484;51.356;6.732;2023-04-15T05:14:20;19.83;;;10.85;;
66619;SDS011;53484;51.356;6.732;2023-04-15T05:16:46;19.25;;;10.95;;
66619;SDS011;53484;51.356;6.732;2023-04-15T05:19:13;19.07;;;10.40;;
66619;SDS011;53484;51.356;6.732;2023-04-15T05:21:39;18.65;;;10.55;;
66619;SDS011;53484;51.356;6.732;2023-04-15T05:24:05;18.75;;;10.63;;
66619;SDS011;53484;51.356;6.732;2023-04-15T05:26:33;18.75;;;10.48;;
66619;SDS011;53484;51.356;6.732;2023-04-15T05:28:59;23.77;;;11.38;;
66619;SDS011;53484;51.356;6.732;2023-04-15T05:31:26;20.50;;;11.40;;
66619;SDS011;53484;51.356;6.732;2023-04-15T05:33:52;20.65;;;11.27;;
66619;SDS011;53484;51.356;6.732;2023-04-15T05:36:18;17.30;;;9.88;;
66619;SDS011;53484;51.356;6.732;2023-04-15T05:38:45;17.83;;;10.05;;
66619;SDS011;53484;51.356;6.732;2023-04-15T05:41:11;17.80;;;9.98;;
66619;SDS011;53484;51.356;6.732;2023-04-15T05:43:41;17.93;;;9.67;;
66619;SDS011;53484;51.356;6.732;2023-04-15T05:46:07;17.48;;;10.05;;
66619;SDS011;53484;51.356;6.732;2023-04-15T05:48:33;17.58;;;9.93;;
66619;SDS011;53484;51.356;6.732;2023-04-15T05:50:59;19.90;;;10.43;;
66619;SDS011;53484;51.356;6.732;2023-04-15T05:53:26;16.30;;;9.55;;
66619;SDS011;53484;51.356;6.732;2023-04-15T05:55:52;17.47;;;9.53;;
66619;SDS011;53484;51.356;6.732;2023-04-15T05:58:18;16.20;;;9.20;;
66619;SDS011;53484;51.356;6.732;2023-04-15T06:00:46;18.83;;;9.90;;
66619;SDS011;53484;51.356;6.732;2023-04-15T06:03:12;17.88;;;8.65;;
66619;SDS011;53484;51.356;6.732;2023-04-15T06:05:39;18.25;;;9.82;;
66619;SDS011;53484;51.356;6.732;2023-04-15T06:08:05;17.07;;;9.73;;
66619;SDS011;53484;51.356;6.732;2023-04-15T06:10:32;19.00;;;9.93;;
66619;SDS011;53484;51.356;6.732;2023-04-15T06:13:00;15.57;;;9.10;;
66619;SDS011;53484;51.356;6.732;2023-04-15T06:15:26;14.52;;;8.95;;
66619;SDS011;53484;51.356;6.732;2023-04-15T06:17:54;18.83;;;9.25;;
66619;SDS011;53484;51.356;6.732;2023-04-15T06:20:20;15.20;;;8.87;;
66619;SDS011;53484;51.356;6.732;2023-04-15T06:22:47;20.08;;;9.35;;
66619;SDS011;53484;51.356;6.732;2023-04-15T06:25:13;18.00;;;9.48;;
66619;SDS011;53484;51.356;6.732;2023-04-15T06:27:40;18.65;;;10.10;;
66619;SDS011;53484;51.356;6.732;2023-04-15T06:30:07;17.05;;;10.10;;
66619;SDS011;53484;51.356;6.732;2023-04-15T06:32:33;16.50;;;10.13;;
66619;SDS011;53484;51.356;6.732;2023-04-15T06:35:01;19.80;;;10.27;;
66619;SDS011;53484;51.356;6.732;2023-04-15T06:37:28;18.42;;;10.90;;
66619;SDS011;53484;51.356;6.732;2023-04-15T06:39:54;17.33;;;9.93;;
66619;SDS011;53484;51.356;6.732;2023-04-15T06:42:20;19.15;;;10.90;;
66619;SDS011;53484;51.356;6.732;2023-04-15T06:44:47;19.40;;;11.30;;
66619;SDS011;53484;51.356;6.732;2023-04-15T06:47:14;18.45;;;10.30;;
66619;SDS011;53484;51.356;6.732;2023-04-15T06:49:40;16.50;;;9.98;;
66619;SDS011;53484;51.356;6.732;2023-04-15T06:52:08;18.10;;;9.80;;
66619;SDS011;53484;51.356;6.732;2023-04-15T06:54:35;17.15;;;9.95;;
66619;SDS011;53484;51.356;6.732;2023-04-15T06:57:01;18.57;;;11.03;;
66619;SDS011;53484;51.356;6.732;2023-04-15T06:59:27;17.90;;;10.43;;
66619;SDS011;53484;51.356;6.732;2023-04-15T07:01:54;17.63;;;9.80;;
66619;SDS011;53484;51.356;6.732;2023-04-15T07:04:20;17.85;;;10.13;;
66619;SDS011;53484;51.356;6.732;2023-04-15T07:06:46;18.35;;;10.02;;
66619;SDS011;53484;51.356;6.732;2023-04-15T07:09:14;16.87;;;9.50;;
66619;SDS011;53484;51.356;6.732;2023-04-15T07:11:40;19.70;;;10.40;;
66619;SDS011;53484;51.356;6.732;2023-04-15T07:14:07;17.92;;;10.27;;
66619;SDS011;53484;51.356;6.732;2023-04-15T07:16:33;16.17;;;10.02;;
66619;SDS011;53484;51.356;6.732;2023-04-15T07:18:59;17.60;;;10.15;;
66619;SDS011;53484;51.356;6.732;2023-04-15T07:21:26;16.87;;;9.93;;
66619;SDS011;53484;51.356;6.732;2023-04-15T07:23:52;15.73;;;9.07;;
66619;SDS011;53484;51.356;6.732;2023-04-15T07:26:20;15.48;;;9.27;;
66619;SDS011;53484;51.356;6.732;2023-04-15T07:28:47;14.55;;;8.20;;
66619;SDS011;53484;51.356;6.732;2023-04-15T07:31:14;15.48;;;7.72;;
66619;SDS011;53484;51.356;6.732;2023-04-15T07:33:41;11.70;;;7.33;;
66619;SDS011;53484;51.356;6.732;2023-04-15T07:36:07;11.50;;;6.43;;
66619;SDS011;53484;51.356;6.732;2023-04-15T07:38:34;11.95;;;6.97;;
66619;SDS011;53484;51.356;6.732;2023-04-15T07:41:00;10.45;;;6.25;;
66619;SDS011;53484;51.356;6.732;2023-04-15T07:43:28;11.68;;;6.28;;
66619;SDS011;53484;51.356;6.732;2023-04-15T07:45:55;11.43;;;5.93;;
66619;SDS011;53484;51.356;6.732;2023-04-15T07:48:21;10.55;;;5.57;;
66619;SDS011;53484;51.356;6.732;2023-04-15T07:50:47;11.48;;;5.55;;
66619;SDS011;53484;51.356;6.732;2023-04-15T07:53:13;8.73;;;5.20;;
66619;SDS011;53484;51.356;6.732;2023-04-15T07:55:40;9.60;;;5.80;;
66619;SDS011;53484;51.356;6.732;2023-04-15T07:58:06;9.60;;;4.93;;
66619;SDS011;53484;51.356;6.732;2023-04-15T08:00:34;10.23;;;5.22;;
66619;SDS011;53484;51.356;6.732;2023-04-15T08:03:00;9.35;;;5.65;;
66619;SDS011;53484;51.356;6.732;2023-04-15T08:05:27;10.65;;;5.20;;
66619;SDS011;53484;51.356;6.732;2023-04-15T08:07:53;10.02;;;5.72;;
66619;SDS011;53484;51.356;6.732;2023-04-15T08:10:20;9.80;;;5.40;;
66619;SDS011;53484;51.356;6.732;2023-04-15T08:12:46;9.75;;;5.10;;
66619;SDS011;53484;51.356;6.732;2023-04-15T08:15:13;10.40;;;5.70;;
66619;SDS011;53484;51.356;6.732;2023-04-15T08:17:42;11.10;;;5.90;;
66619;SDS011;53484;51.356;6.732;2023-04-15T08:20:08;9.93;;;5.63;;
66619;SDS011;53484;51.356;6.732;2023-04-15T08:22:37;9.40;;;5.30;;
66619;SDS011;53484;51.356;6.732;2023-04-15T08:25:04;9.55;;;5.72;;
66619;SDS011;53484;51.356;6.732;2023-04-15T08:27:30;11.80;;;5.32;;
66619;SDS011;53484;51.356;6.732;2023-04-15T08:29:57;8.25;;;4.78;;
66619;SDS011;53484;51.356;6.732;2023-04-15T08:32:23;9.00;;;4.57;;
66619;SDS011;53484;51.356;6.732;2023-04-15T08:34:52;8.03;;;4.17;;
66619;SDS011;53484;51.356;6.732;2023-04-15T08:37:18;7.05;;;4.00;;
66619;SDS011;53484;51.356;6.732;2023-04-15T08:39:45;7.85;;;3.70;;
66619;SDS011;53484;51.356;6.732;2023-04-15T08:42:11;5.95;;;3.10;;
66619;SDS011;53484;51.356;6.732;2023-04-15T08:44:41;6.93;;;3.17;;
66619;SDS011;53484;51.356;6.732;2023-04-15T08:47:08;6.50;;;3.27;;
66619;SDS011;53484;51.356;6.732;2023-04-15T08:49:38;4.88;;;2.65;;
66619;SDS011;53484;51.356;6.732;2023-04-15T08:52:06;6.15;;;3.40;;
66619;SDS011;53484;51.356;6.732;2023-04-15T08:54:33;5.18;;;2.78;;
66619;SDS011;53484;51.356;6.732;2023-04-15T08:57:00;5.28;;;2.83;;
66619;SDS011;53484;51.356;6.732;2023-04-15T08:59:27;6.17;;;3.03;;
66619;SDS011;53484;51.356;6.732;2023-04-15T09:01:55;5.18;;;2.95;;
66619;SDS011;53484;51.356;6.732;2023-04-15T09:04:22;6.28;;;3.40;;
66619;SDS011;53484;51.356;6.732;2023-04-15T09:06:48;6.03;;;3.45;;
66619;SDS011;53484;51.356;6.732;2023-04-15T09:09:17;5.50;;;3.10;;
66619;SDS011;53484;51.356;6.732;2023-04-15T09:11:43;5.50;;;3.00;;
66619;SDS011;53484;51.356;6.732;2023-04-15T09:14:10;6.60;;;2.92;;
66619;SDS011;53484;51.356;6.732;2023-04-15T09:16:56;7.03;;;3.20;;
66619;SDS011;53484;51.356;6.732;2023-04-15T09:19:22;5.45;;;2.90;;
66619;SDS011;53484;51.356;6.732;2023-04-15T09:21:49;6.75;;;3.30;;
66619;SDS011;53484;51.356;6.732;2023-04-15T09:24:15;6.27;;;2.77;;
66619;SDS011;53484;51.356;6.732;2023-04-15T09:26:43;7.63;;;3.40;;
66619;SDS011;53484;51.356;6.732;2023-04-15T09:29:10;11.75;;;3.38;;
66619;SDS011;53484;51.356;6.732;2023-04-15T09:31:37;8.20;;;2.83;;
66619;SDS011;53484;51.356;6.732;2023-04-15T09:34:04;6.00;;;2.80;;
66619;SDS011;53484;51.356;6.732;2023-04-15T09:36:35;6.87;;;3.03;;
66619;SDS011;53484;51.356;6.732;2023-04-15T09:39:03;7.00;;;3.30;;
66619;SDS011;53484;51.356;6.732;2023-04-15T09:41:29;6.40;;;3.28;;
66619;SDS011;53484;51.356;6.732;2023-04-15T09:43:57;5.28;;;2.70;;
66619;SDS011;53484;51.356;6.732;2023-04-15T09:49:06;5.93;;;3.07;;
66619;SDS011;53484;51.356;6.732;2023-04-15T09:51:33;4.93;;;2.40;;
66619;SDS011;53484;51.356;6.732;2023-04-15T09:53:59;13.45;;;3.00;;
66619;SDS011;53484;51.356;6.732;2023-04-15T09:56:30;6.75;;;2.55;;
66619;SDS011;53484;51.356;6.732;2023-04-15T09:58:58;5.55;;;2.90;;
66619;SDS011;53484;51.356;6.732;2023-04-15T10:01:25;5.73;;;3.07;;
66619;SDS011;53484;51.356;6.732;2023-04-15T10:03:51;6.28;;;2.80;;
66619;SDS011;53484;51.356;6.732;2023-04-15T10:06:19;5.85;;;2.83;;
66619;SDS011;53484;51.356;6.732;2023-04-15T10:08:46;6.80;;;3.20;;
66619;SDS011;53484;51.356;6.732;2023-04-15T10:11:13;5.30;;;3.13;;
66619;SDS011;53484;51.356;6.732;2023-04-15T10:13:39;7.07;;;3.30;;
66619;SDS011;53484;51.356;6.732;2023-04-15T10:16:09;6.15;;;3.17;;
66619;SDS011;53484;51.356;6.732;2023-04-15T10:18:37;5.85;;;3.38;;
66619;SDS011;53484;51.356;6.732;2023-04-15T10:21:05;6.93;;;3.55;;
66619;SDS011;53484;51.356;6.732;2023-04-15T10:23:32;5.95;;;3.53;;
66619;SDS011;53484;51.356;6.732;2023-04-15T10:25:58;5.63;;;3.40;;
66619;SDS011;53484;51.356;6.732;2023-04-15T10:28:25;7.75;;;3.85;;
66619;SDS011;53484;51.356;6.732;2023-04-15T10:30:51;7.70;;;3.95;;
66619;SDS011;53484;51.356;6.732;2023-04-15T10:33:20;6.93;;;4.20;;
66619;SDS011;53484;51.356;6.732;2023-04-15T10:35:46;6.22;;;3.83;;
66619;SDS011;53484;51.356;6.732;2023-04-15T10:38:32;9.37;;;3.87;;
66619;SDS011;53484;51.356;6.732;2023-04-15T10:41:12;6.10;;;4.03;;
66619;SDS011;53484;51.356;6.732;2023-04-15T10:43:39;7.20;;;4.32;;
66619;SDS011;53484;51.356;6.732;2023-04-15T10:46:05;5.75;;;3.55;;
66619;SDS011;53484;51.356;6.732;2023-04-15T10:48:33;6.60;;;4.00;;
66619;SDS011;53484;51.356;6.732;2023-04-15T10:50:59;6.70;;;3.50;;
66619;SDS011;53484;51.356;6.732;2023-04-15T10:53:27;6.07;;;3.53;;
66619;SDS011;53484;51.356;6.732;2023-04-15T10:55:53;9.10;;;3.75;;
66619;SDS011;53484;51.356;6.732;2023-04-15T10:58:22;6.55;;;3.95;;
66619;SDS011;53484;51.356;6.732;2023-04-15T11:00:49;10.65;;;4.72;;
66619;SDS011;53484;51.356;6.732;2023-04-15T11:03:16;7.00;;;3.80;;
66619;SDS011;53484;51.356;6.732;2023-04-15T11:05:50;7.80;;;4.63;;
66619;SDS011;53484;51.356;6.732;2023-04-15T11:08:16;9.95;;;5.75;;
66619;SDS011;53484;51.356;6.732;2023-04-15T11:10:52;10.68;;;6.43;;
66619;SDS011;53484;51.356;6.732;2023-04-15T11:13:19;7.85;;;5.07;;
66619;SDS011;53484;51.356;6.732;2023-04-15T11:15:47;9.00;;;5.13;;
66619;SDS011;53484;51.356;6.732;2023-04-15T11:18:14;9.77;;;5.13;;
66619;SDS011;53484;51.356;6.732;2023-04-15T11:20:42;6.70;;;4.05;;
66619;SDS011;53484;51.356;6.732;2023-04-15T11:23:10;7.10;;;3.97;;
66619;SDS011;53484;51.356;6.732;2023-04-15T11:25:36;6.60;;;3.53;;
66619;SDS011;53484;51.356;6.732;2023-04-15T11:28:03;5.90;;;3.40;;
66619;SDS011;53484;51.356;6.732;2023-04-15T11:30:30;5.85;;;3.33;;
66619;SDS011;53484;51.356;6.732;2023-04-15T11:32:58;5.97;;;3.33;;
66619;SDS011;53484;51.356;6.732;2023-04-15T11:35:24;5.85;;;3.25;;
66619;SDS011;53484;51.356;6.732;2023-04-15T11:37:51;8.65;;;4.45;;
66619;SDS011;53484;51.356;6.732;2023-04-15T11:45:31;9.05;;;4.22;;
66619;SDS011;53484;51.356;6.732;2023-04-15T11:48:03;7.28;;;4.28;;
66619;SDS011;53484;51.356;6.732;2023-04-15T11:50:30;9.98;;;4.28;;
66619;SDS011;53484;51.356;6.732;2023-04-15T11:52:56;11.37;;;3.57;;
66619;SDS011;53484;51.356;6.732;2023-04-15T11:55:23;6.63;;;4.00;;
66619;SDS011;53484;51.356;6.732;2023-04-15T11:57:52;7.20;;;4.00;;
66619;SDS011;53484;51.356;6.732;2023-04-15T12:00:32;8.70;;;3.80;;
66619;SDS011;53484;51.356;6.732;2023-04-15T12:03:10;6.38;;;3.40;;
66619;SDS011;53484;51.356;6.732;2023-04-15T12:05:36;8.53;;;3.40;;
66619;SDS011;53484;51.356;6.732;2023-04-15T12:08:22;6.75;;;3.03;;
66619;SDS011;53484;51.356;6.732;2023-04-15T12:10:49;5.80;;;3.10;;
66619;SDS011;53484;51.356;6.732;2023-04-15T12:13:15;6.68;;;3.35;;
66619;SDS011;53484;51.356;6.732;2023-04-15T12:15:43;8.93;;;3.88;;
66619;SDS011;53484;51.356;6.732;2023-04-15T12:18:15;6.70;;;3.60;;
66619;SDS011;53484;51.356;6.732;2023-04-15T12:20:42;5.95;;;3.63;;
66619;SDS011;53484;51.356;6.732;2023-04-15T12:23:09;6.13;;;3.67;;
66619;SDS011;53484;51.356;6.732;2023-04-15T12:25:35;7.75;;;4.07;;
66619;SDS011;53484;51.356;6.732;2023-04-15T12:28:05;7.38;;;4.05;;
66619;SDS011;53484;51.356;6.732;2023-04-15T12:30:35;8.87;;;3.57;;
66619;SDS011;53484;51.356;6.732;2023-04-15T12:33:03;9.60;;;3.58;;
66619;SDS011;53484;51.356;6.732;2023-04-15T12:35:29;6.25;;;3.50;;
66619;SDS011;53484;51.356;6.732;2023-04-15T12:37:56;6.18;;;3.60;;
66619;SDS011;53484;51.356;6.732;2023-04-15T12:40:22;7.65;;;3.63;;
66619;SDS011;53484;51.356;6.732;2023-04-15T12:42:48;6.67;;;3.50;;
66619;SDS011;53484;51.356;6.732;2023-04-15T12:45:14;7.80;;;3.70;;
66619;SDS011;53484;51.356;6.732;2023-04-15T12:47:41;8.02;;;3.80;;
66619;SDS011;53484;51.356;6.732;2023-04-15T12:50:08;6.25;;;3.55;;
66619;SDS011;53484;51.356;6.732;2023-04-15T12:52:35;7.93;;;4.03;;
66619;SDS011;53484;51.356;6.732;2023-04-15T12:55:01;6.27;;;3.40;;
66619;SDS011;53484;51.356;6.732;2023-04-15T12:57:27;8.23;;;3.63;;
66619;SDS011;53484;51.356;6.732;2023-04-15T12:59:54;7.80;;;3.72;;
66619;SDS011;53484;51.356;6.732;2023-04-15T13:02:20;6.80;;;3.50;;
66619;SDS011;53484;51.356;6.732;2023-04-15T13:04:49;7.53;;;3.65;;
66619;SDS011;53484;51.356;6.732;2023-04-15T13:07:17;7.80;;;3.23;;
66619;SDS011;53484;51.356;6.732;2023-04-15T13:09:43;7.65;;;3.08;;
66619;SDS011;53484;51.356;6.732;2023-04-15T13:12:10;6.10;;;3.17;;
66619;SDS011;53484;51.356;6.732;2023-04-15T13:14:37;9.57;;;3.58;;
66619;SDS011;53484;51.356;6.732;2023-04-15T13:17:04;6.55;;;3.20;;
66619;SDS011;53484;51.356;6.732;2023-04-15T13:19:34;7.53;;;3.30;;
66619;SDS011;53484;51.356;6.732;2023-04-15T13:22:00;8.05;;;3.28;;
66619;SDS011;53484;51.356;6.732;2023-04-15T13:24:28;8.40;;;3.40;;
66619;SDS011;53484;51.356;6.732;2023-04-15T13:26:54;8.98;;;3.70;;
66619;SDS011;53484;51.356;6.732;2023-04-15T13:29:23;7.45;;;3.28;;
66619;SDS011;53484;51.356;6.732;2023-04-15T13:31:49;6.17;;;2.60;;
66619;SDS011;53484;51.356;6.732;2023-04-15T13:34:16;8.15;;;3.03;;
66619;SDS011;53484;51.356;6.732;2023-04-15T13:36:42;9.70;;;3.55;;
66619;SDS011;53484;51.356;6.732;2023-04-15T13:39:08;5.93;;;3.03;;
66619;SDS011;53484;51.356;6.732;2023-04-15T13:41:36;6.05;;;3.20;;
66619;SDS011;53484;51.356;6.732;2023-04-15T13:44:02;6.30;;;3.07;;
66619;SDS011;53484;51.356;6.732;2023-04-15T13:46:29;8.60;;;3.00;;
66619;SDS011;53484;51.356;6.732;2023-04-15T13:48:55;6.00;;;2.67;;
66619;SDS011;53484;51.356;6.732;2023-04-15T13:51:22;7.00;;;2.50;;
66619;SDS011;53484;51.356;6.732;2023-04-15T13:53:48;6.32;;;2.50;;
66619;SDS011;53484;51.356;6.732;2023-04-15T13:56:14;6.00;;;2.80;;
66619;SDS011;53484;51.356;6.732;2023-04-15T13:58:42;5.70;;;2.83;;
66619;SDS011;53484;51.356;6.732;2023-04-15T14:01:08;5.53;;;2.80;;
66619;SDS011;53484;51.356;6.732;2023-04-15T14:03:34;5.03;;;2.67;;
66619;SDS011;53484;51.356;6.732;2023-04-15T14:06:01;7.40;;;2.92;;
66619;SDS011;53484;51.356;6.732;2023-04-15T14:08:27;8.17;;;2.73;;
66619;SDS011;53484;51.356;6.732;2023-04-15T14:10:54;5.13;;;2.42;;
66619;SDS011;53484;51.356;6.732;2023-04-15T14:13:21;5.90;;;2.90;;
66619;SDS011;53484;51.356;6.732;2023-04-15T14:15:49;7.97;;;2.90;;
66619;SDS011;53484;51.356;6.732;2023-04-15T14:18:15;7.63;;;3.30;;
66619;SDS011;53484;51.356;6.732;2023-04-15T14:20:41;6.67;;;2.47;;
66619;SDS011;53484;51.356;6.732;2023-04-15T14:23:08;5.30;;;2.55;;
66619;SDS011;53484;51.356;6.732;2023-04-15T14:25:34;6.55;;;2.63;;
66619;SDS011;53484;51.356;6.732;2023-04-15T14:28:02;5.68;;;2.45;;
66619;SDS011;53484;51.356;6.732;2023-04-15T14:30:29;5.97;;;2.65;;
66619;SDS011;53484;51.356;6.732;2023-04-15T14:32:56;5.30;;;2.60;;
66619;SDS011;53484;51.356;6.732;2023-04-15T14:35:23;5.38;;;2.70;;
66619;SDS011;53484;51.356;6.732;2023-04-15T14:37:50;5.30;;;2.72;;
66619;SDS011;53484;51.356;6.732;2023-04-15T14:40:18;6.75;;;2.83;;
66619;SDS011;53484;51.356;6.732;2023-04-15T14:42:45;8.93;;;3.00;;
66619;SDS011;53484;51.356;6.732;2023-04-15T14:45:11;10.87;;;2.50;;